sensor_id;sensor_type;location;lat;lon;timestamp;P1;durP1;ratioP1;P2;durP2;ratioP2
8913;SDS011;4492;48.736;9.092;2023-07-24T00:00:35;9.03;;;6.27;;
8913;SDS011;4492;48.736;9.092;2023-07-24T00:03:02;8.63;;;5.97;;
8913;SDS011;4492;48.736;9.092;2023-07-24T00:05:27;8.70;;;5.80;;
8913;SDS011;4492;48.736;9.092;2023-07-24T00:07:53;8.43;;;6.13;;
8913;SDS011;4492;48.736;9.092;2023-07-24T00:10:18;8.43;;;6.00;;
8913;SDS011;4492;48.736;9.092;2023-07-24T00:12:44;8.33;;;6.40;;
8913;SDS011;4492;48.736;9.092;2023-07-24T00:15:09;10.07;;;6.20;;
8913;SDS011;4492;48.736;9.092;2023-07-24T00:17:35;9.10;;;6.70;;
8913;SDS011;4492;48.736;9.092;2023-07-24T00:20:00;9.93;;;6.40;;
8913;SDS011;4492;48.736;9.092;2023-07-24T00:22:26;8.47;;;6.33;;
8913;SDS011;4492;48.736;9.092;2023-07-24T00:24:51;10.27;;;6.70;;
8913;SDS011;4492;48.736;9.092;2023-07-24T00:27:17;9.47;;;6.73;;
8913;SDS011;4492;48.736;9.092;2023-07-24T00:29:42;9.50;;;6.57;;
8913;SDS011;4492;48.736;9.092;2023-07-24T00:32:08;9.50;;;6.77;;
8913;SDS011;4492;48.736;9.092;2023-07-24T00:34:34;7.67;;;6.30;;
8913;SDS011;4492;48.736;9.092;2023-07-24T00:36:59;8.07;;;5.77;;
8913;SDS011;4492;48.736;9.092;2023-07-24T00:39:25;8.93;;;6.53;;
8913;SDS011;4492;48.736;9.092;2023-07-24T00:41:53;9.27;;;6.47;;
8913;SDS011;4492;48.736;9.092;2023-07-24T00:44:19;8.87;;;6.53;;
8913;SDS011;4492;48.736;9.092;2023-07-24T00:46:44;8.00;;;6.60;;
8913;SDS011;4492;48.736;9.092;2023-07-24T00:49:10;8.27;;;6.07;;
8913;SDS011;4492;48.736;9.092;2023-07-24T00:51:35;10.10;;;7.17;;
8913;SDS011;4492;48.736;9.092;2023-07-24T00:54:02;8.33;;;6.83;;
8913;SDS011;4492;48.736;9.092;2023-07-24T00:56:29;11.63;;;6.53;;
8913;SDS011;4492;48.736;9.092;2023-07-24T00:58:56;9.70;;;6.73;;
8913;SDS011;4492;48.736;9.092;2023-07-24T01:01:22;8.47;;;6.60;;
8913;SDS011;4492;48.736;9.092;2023-07-24T01:03:48;8.70;;;6.03;;
8913;SDS011;4492;48.736;9.092;2023-07-24T01:06:14;8.43;;;5.83;;
8913;SDS011;4492;48.736;9.092;2023-07-24T01:08:39;9.83;;;7.10;;
8913;SDS011;4492;48.736;9.092;2023-07-24T01:11:14;10.00;;;6.93;;
8913;SDS011;4492;48.736;9.092;2023-07-24T01:13:44;8.27;;;6.33;;
8913;SDS011;4492;48.736;9.092;2023-07-24T01:16:21;11.07;;;6.80;;
8913;SDS011;4492;48.736;9.092;2023-07-24T01:18:47;10.83;;;6.90;;
8913;SDS011;4492;48.736;9.092;2023-07-24T01:21:16;11.80;;;6.33;;
8913;SDS011;4492;48.736;9.092;2023-07-24T01:26:35;8.97;;;6.63;;
8913;SDS011;4492;48.736;9.092;2023-07-24T01:29:01;9.93;;;7.07;;
8913;SDS011;4492;48.736;9.092;2023-07-24T01:31:26;8.07;;;6.67;;
8913;SDS011;4492;48.736;9.092;2023-07-24T01:33:52;8.43;;;6.23;;
8913;SDS011;4492;48.736;9.092;2023-07-24T01:36:18;8.17;;;6.17;;
8913;SDS011;4492;48.736;9.092;2023-07-24T01:38:44;8.13;;;6.60;;
8913;SDS011;4492;48.736;9.092;2023-07-24T01:41:11;8.60;;;6.50;;
8913;SDS011;4492;48.736;9.092;2023-07-24T01:43:37;9.13;;;6.57;;
8913;SDS011;4492;48.736;9.092;2023-07-24T01:46:02;10.37;;;6.80;;
8913;SDS011;4492;48.736;9.092;2023-07-24T01:48:28;11.47;;;6.90;;
8913;SDS011;4492;48.736;9.092;2023-07-24T01:50:53;10.43;;;6.93;;
8913;SDS011;4492;48.736;9.092;2023-07-24T01:53:19;9.13;;;6.70;;
8913;SDS011;4492;48.736;9.092;2023-07-24T01:55:44;7.40;;;6.00;;
8913;SDS011;4492;48.736;9.092;2023-07-24T01:58:10;8.50;;;6.33;;
8913;SDS011;4492;48.736;9.092;2023-07-24T02:00:35;8.20;;;6.60;;
8913;SDS011;4492;48.736;9.092;2023-07-24T02:03:00;9.17;;;6.27;;
8913;SDS011;4492;48.736;9.092;2023-07-24T02:05:26;11.23;;;7.03;;
8913;SDS011;4492;48.736;9.092;2023-07-24T02:07:52;8.23;;;6.27;;
8913;SDS011;4492;48.736;9.092;2023-07-24T02:10:17;8.47;;;6.30;;
8913;SDS011;4492;48.736;9.092;2023-07-24T02:12:43;8.23;;;6.53;;
8913;SDS011;4492;48.736;9.092;2023-07-24T02:15:08;8.13;;;5.77;;
8913;SDS011;4492;48.736;9.092;2023-07-24T02:17:34;8.40;;;6.30;;
8913;SDS011;4492;48.736;9.092;2023-07-24T02:20:00;7.63;;;6.23;;
8913;SDS011;4492;48.736;9.092;2023-07-24T02:22:26;7.60;;;5.57;;
8913;SDS011;4492;48.736;9.092;2023-07-24T02:24:51;9.13;;;6.20;;
8913;SDS011;4492;48.736;9.092;2023-07-24T02:27:26;8.77;;;6.50;;
8913;SDS011;4492;48.736;9.092;2023-07-24T02:29:55;7.40;;;5.70;;
8913;SDS011;4492;48.736;9.092;2023-07-24T02:32:20;7.33;;;5.93;;
8913;SDS011;4492;48.736;9.092;2023-07-24T02:34:48;9.50;;;6.33;;
8913;SDS011;4492;48.736;9.092;2023-07-24T02:37:14;8.33;;;6.00;;
8913;SDS011;4492;48.736;9.092;2023-07-24T02:39:40;7.73;;;6.03;;
8913;SDS011;4492;48.736;9.092;2023-07-24T02:42:05;10.83;;;6.23;;
8913;SDS011;4492;48.736;9.092;2023-07-24T02:44:33;9.97;;;6.00;;
8913;SDS011;4492;48.736;9.092;2023-07-24T02:46:59;8.73;;;6.37;;
8913;SDS011;4492;48.736;9.092;2023-07-24T02:49:24;8.13;;;5.93;;
8913;SDS011;4492;48.736;9.092;2023-07-24T02:51:50;7.63;;;5.93;;
8913;SDS011;4492;48.736;9.092;2023-07-24T02:54:15;9.97;;;5.87;;
8913;SDS011;4492;48.736;9.092;2023-07-24T02:56:41;11.03;;;5.87;;
8913;SDS011;4492;48.736;9.092;2023-07-24T02:59:06;9.77;;;6.43;;
8913;SDS011;4492;48.736;9.092;2023-07-24T03:01:32;9.37;;;5.83;;
8913;SDS011;4492;48.736;9.092;2023-07-24T03:03:57;7.90;;;6.20;;
8913;SDS011;4492;48.736;9.092;2023-07-24T03:06:23;7.67;;;5.47;;
8913;SDS011;4492;48.736;9.092;2023-07-24T03:08:48;7.33;;;5.97;;
8913;SDS011;4492;48.736;9.092;2023-07-24T03:11:14;9.87;;;6.70;;
8913;SDS011;4492;48.736;9.092;2023-07-24T03:13:39;8.80;;;5.70;;
8913;SDS011;4492;48.736;9.092;2023-07-24T03:16:06;9.20;;;5.97;;
8913;SDS011;4492;48.736;9.092;2023-07-24T03:18:31;8.07;;;5.97;;
8913;SDS011;4492;48.736;9.092;2023-07-24T03:20:57;10.27;;;6.33;;
8913;SDS011;4492;48.736;9.092;2023-07-24T03:23:24;8.17;;;6.20;;
8913;SDS011;4492;48.736;9.092;2023-07-24T03:25:49;9.00;;;6.60;;
8913;SDS011;4492;48.736;9.092;2023-07-24T03:28:15;8.03;;;5.87;;
8913;SDS011;4492;48.736;9.092;2023-07-24T03:30:40;8.13;;;6.00;;
8913;SDS011;4492;48.736;9.092;2023-07-24T03:33:06;8.67;;;6.13;;
8913;SDS011;4492;48.736;9.092;2023-07-24T03:35:32;8.63;;;6.10;;
8913;SDS011;4492;48.736;9.092;2023-07-24T03:37:57;8.43;;;6.03;;
8913;SDS011;4492;48.736;9.092;2023-07-24T03:40:23;8.90;;;5.83;;
8913;SDS011;4492;48.736;9.092;2023-07-24T03:42:48;10.20;;;6.10;;
8913;SDS011;4492;48.736;9.092;2023-07-24T03:45:14;12.87;;;6.73;;
8913;SDS011;4492;48.736;9.092;2023-07-24T03:47:39;11.37;;;6.67;;
8913;SDS011;4492;48.736;9.092;2023-07-24T03:50:05;8.67;;;6.00;;
8913;SDS011;4492;48.736;9.092;2023-07-24T03:52:31;8.33;;;6.33;;
8913;SDS011;4492;48.736;9.092;2023-07-24T03:54:56;8.57;;;5.83;;
8913;SDS011;4492;48.736;9.092;2023-07-24T03:57:22;9.17;;;5.77;;
8913;SDS011;4492;48.736;9.092;2023-07-24T03:59:47;7.30;;;5.80;;
8913;SDS011;4492;48.736;9.092;2023-07-24T04:02:13;7.97;;;5.63;;
8913;SDS011;4492;48.736;9.092;2023-07-24T04:04:38;7.53;;;5.50;;
8913;SDS011;4492;48.736;9.092;2023-07-24T04:07:04;6.97;;;5.50;;
8913;SDS011;4492;48.736;9.092;2023-07-24T04:09:30;9.20;;;5.97;;
8913;SDS011;4492;48.736;9.092;2023-07-24T04:11:55;7.20;;;5.70;;
8913;SDS011;4492;48.736;9.092;2023-07-24T04:14:21;7.37;;;5.53;;
8913;SDS011;4492;48.736;9.092;2023-07-24T04:16:46;7.17;;;5.67;;
8913;SDS011;4492;48.736;9.092;2023-07-24T04:19:12;8.07;;;5.60;;
8913;SDS011;4492;48.736;9.092;2023-07-24T04:21:38;7.43;;;5.73;;
8913;SDS011;4492;48.736;9.092;2023-07-24T04:24:03;7.40;;;5.80;;
8913;SDS011;4492;48.736;9.092;2023-07-24T04:26:29;6.77;;;5.57;;
8913;SDS011;4492;48.736;9.092;2023-07-24T04:28:54;6.80;;;5.40;;
8913;SDS011;4492;48.736;9.092;2023-07-24T04:31:20;7.20;;;5.47;;
8913;SDS011;4492;48.736;9.092;2023-07-24T04:33:45;7.47;;;5.70;;
8913;SDS011;4492;48.736;9.092;2023-07-24T04:36:11;8.83;;;6.60;;
8913;SDS011;4492;48.736;9.092;2023-07-24T04:38:36;8.63;;;5.87;;
8913;SDS011;4492;48.736;9.092;2023-07-24T04:41:02;8.63;;;5.70;;
8913;SDS011;4492;48.736;9.092;2023-07-24T04:43:28;9.40;;;5.60;;
8913;SDS011;4492;48.736;9.092;2023-07-24T04:45:54;11.37;;;7.17;;
8913;SDS011;4492;48.736;9.092;2023-07-24T04:48:19;10.60;;;6.20;;
8913;SDS011;4492;48.736;9.092;2023-07-24T04:50:45;8.03;;;6.07;;
8913;SDS011;4492;48.736;9.092;2023-07-24T04:53:10;8.63;;;5.80;;
8913;SDS011;4492;48.736;9.092;2023-07-24T04:55:36;9.20;;;5.77;;
8913;SDS011;4492;48.736;9.092;2023-07-24T04:58:01;9.03;;;5.90;;
8913;SDS011;4492;48.736;9.092;2023-07-24T05:00:27;11.67;;;6.90;;
8913;SDS011;4492;48.736;9.092;2023-07-24T05:02:52;8.90;;;6.50;;
8913;SDS011;4492;48.736;9.092;2023-07-24T05:05:18;8.50;;;6.23;;
8913;SDS011;4492;48.736;9.092;2023-07-24T05:07:43;8.60;;;5.87;;
8913;SDS011;4492;48.736;9.092;2023-07-24T05:10:09;9.93;;;6.47;;
8913;SDS011;4492;48.736;9.092;2023-07-24T05:12:34;6.60;;;5.60;;
8913;SDS011;4492;48.736;9.092;2023-07-24T05:15:00;7.37;;;5.77;;
8913;SDS011;4492;48.736;9.092;2023-07-24T05:17:26;7.30;;;5.80;;
8913;SDS011;4492;48.736;9.092;2023-07-24T05:19:51;6.60;;;5.40;;
8913;SDS011;4492;48.736;9.092;2023-07-24T05:22:17;7.30;;;5.93;;
8913;SDS011;4492;48.736;9.092;2023-07-24T05:24:42;8.00;;;7.17;;
8913;SDS011;4492;48.736;9.092;2023-07-24T05:27:08;8.97;;;6.43;;
8913;SDS011;4492;48.736;9.092;2023-07-24T05:29:33;9.73;;;6.37;;
8913;SDS011;4492;48.736;9.092;2023-07-24T05:31:59;11.17;;;7.17;;
8913;SDS011;4492;48.736;9.092;2023-07-24T05:34:25;10.53;;;7.30;;
8913;SDS011;4492;48.736;9.092;2023-07-24T05:36:50;9.97;;;7.07;;
8913;SDS011;4492;48.736;9.092;2023-07-24T05:39:16;8.83;;;6.47;;
8913;SDS011;4492;48.736;9.092;2023-07-24T05:41:41;9.00;;;6.40;;
8913;SDS011;4492;48.736;9.092;2023-07-24T05:44:07;8.90;;;6.57;;
8913;SDS011;4492;48.736;9.092;2023-07-24T05:46:32;10.97;;;7.37;;
8913;SDS011;4492;48.736;9.092;2023-07-24T05:48:58;11.30;;;7.07;;
8913;SDS011;4492;48.736;9.092;2023-07-24T05:51:25;9.67;;;7.00;;
8913;SDS011;4492;48.736;9.092;2023-07-24T05:53:51;11.47;;;7.37;;
8913;SDS011;4492;48.736;9.092;2023-07-24T05:56:16;10.87;;;6.87;;
8913;SDS011;4492;48.736;9.092;2023-07-24T05:58:42;12.37;;;7.47;;
8913;SDS011;4492;48.736;9.092;2023-07-24T06:01:07;11.73;;;7.50;;
8913;SDS011;4492;48.736;9.092;2023-07-24T06:03:35;10.10;;;7.30;;
8913;SDS011;4492;48.736;9.092;2023-07-24T06:06:01;12.97;;;7.93;;
8913;SDS011;4492;48.736;9.092;2023-07-24T06:08:26;12.30;;;7.70;;
8913;SDS011;4492;48.736;9.092;2023-07-24T06:10:52;9.23;;;7.03;;
8913;SDS011;4492;48.736;9.092;2023-07-24T06:13:18;11.97;;;7.33;;
8913;SDS011;4492;48.736;9.092;2023-07-24T06:15:44;9.63;;;7.20;;
8913;SDS011;4492;48.736;9.092;2023-07-24T06:18:11;11.90;;;7.50;;
8913;SDS011;4492;48.736;9.092;2023-07-24T06:20:37;10.10;;;7.33;;
8913;SDS011;4492;48.736;9.092;2023-07-24T06:23:02;10.33;;;7.20;;
8913;SDS011;4492;48.736;9.092;2023-07-24T06:25:29;9.37;;;7.30;;
8913;SDS011;4492;48.736;9.092;2023-07-24T06:27:55;8.60;;;7.00;;
8913;SDS011;4492;48.736;9.092;2023-07-24T06:30:21;10.43;;;7.00;;
8913;SDS011;4492;48.736;9.092;2023-07-24T06:32:47;11.13;;;7.63;;
8913;SDS011;4492;48.736;9.092;2023-07-24T06:35:12;12.17;;;7.13;;
8913;SDS011;4492;48.736;9.092;2023-07-24T06:37:38;12.47;;;7.40;;
8913;SDS011;4492;48.736;9.092;2023-07-24T06:40:03;10.93;;;7.70;;
8913;SDS011;4492;48.736;9.092;2023-07-24T06:42:29;11.40;;;7.10;;
8913;SDS011;4492;48.736;9.092;2023-07-24T06:44:55;13.23;;;8.10;;
8913;SDS011;4492;48.736;9.092;2023-07-24T06:47:20;11.43;;;6.77;;
8913;SDS011;4492;48.736;9.092;2023-07-24T06:49:46;10.50;;;7.17;;
8913;SDS011;4492;48.736;9.092;2023-07-24T06:52:12;14.17;;;7.53;;
8913;SDS011;4492;48.736;9.092;2023-07-24T06:54:37;10.97;;;7.37;;
8913;SDS011;4492;48.736;9.092;2023-07-24T06:57:03;10.37;;;7.30;;
8913;SDS011;4492;48.736;9.092;2023-07-24T06:59:28;11.67;;;7.67;;
8913;SDS011;4492;48.736;9.092;2023-07-24T07:01:54;9.87;;;7.10;;
8913;SDS011;4492;48.736;9.092;2023-07-24T07:04:19;13.07;;;8.43;;
8913;SDS011;4492;48.736;9.092;2023-07-24T07:06:45;10.90;;;7.60;;
8913;SDS011;4492;48.736;9.092;2023-07-24T07:09:10;11.07;;;7.40;;
8913;SDS011;4492;48.736;9.092;2023-07-24T07:11:36;15.13;;;7.60;;
8913;SDS011;4492;48.736;9.092;2023-07-24T07:14:02;11.83;;;7.27;;
8913;SDS011;4492;48.736;9.092;2023-07-24T07:16:27;10.10;;;7.17;;
8913;SDS011;4492;48.736;9.092;2023-07-24T07:18:53;11.03;;;8.10;;
8913;SDS011;4492;48.736;9.092;2023-07-24T07:21:18;12.63;;;7.60;;
8913;SDS011;4492;48.736;9.092;2023-07-24T07:23:44;13.07;;;8.27;;
8913;SDS011;4492;48.736;9.092;2023-07-24T07:26:09;10.53;;;7.47;;
8913;SDS011;4492;48.736;9.092;2023-07-24T07:28:35;11.07;;;7.50;;
8913;SDS011;4492;48.736;9.092;2023-07-24T07:31:00;11.20;;;7.33;;
8913;SDS011;4492;48.736;9.092;2023-07-24T07:33:26;9.73;;;7.20;;
8913;SDS011;4492;48.736;9.092;2023-07-24T07:35:51;10.37;;;7.20;;
8913;SDS011;4492;48.736;9.092;2023-07-24T07:38:17;9.40;;;6.70;;
8913;SDS011;4492;48.736;9.092;2023-07-24T07:40:43;12.97;;;8.10;;
8913;SDS011;4492;48.736;9.092;2023-07-24T07:43:08;11.93;;;7.73;;
8913;SDS011;4492;48.736;9.092;2023-07-24T07:45:33;17.03;;;7.70;;
8913;SDS011;4492;48.736;9.092;2023-07-24T07:47:59;9.33;;;7.00;;
8913;SDS011;4492;48.736;9.092;2023-07-24T07:50:25;11.40;;;7.70;;
8913;SDS011;4492;48.736;9.092;2023-07-24T07:52:51;11.03;;;7.73;;
8913;SDS011;4492;48.736;9.092;2023-07-24T07:55:17;11.80;;;8.10;;
8913;SDS011;4492;48.736;9.092;2023-07-24T07:57:43;10.97;;;7.73;;
8913;SDS011;4492;48.736;9.092;2023-07-24T08:00:09;12.53;;;7.57;;
8913;SDS011;4492;48.736;9.092;2023-07-24T08:02:35;10.77;;;8.10;;
8913;SDS011;4492;48.736;9.092;2023-07-24T08:05:04;12.67;;;8.20;;
8913;SDS011;4492;48.736;9.092;2023-07-24T08:07:34;13.77;;;7.47;;
8913;SDS011;4492;48.736;9.092;2023-07-24T08:10:00;13.53;;;7.77;;
8913;SDS011;4492;48.736;9.092;2023-07-24T08:12:25;9.93;;;7.43;;
8913;SDS011;4492;48.736;9.092;2023-07-24T08:14:51;10.37;;;7.80;;
8913;SDS011;4492;48.736;9.092;2023-07-24T08:17:16;10.87;;;7.93;;
8913;SDS011;4492;48.736;9.092;2023-07-24T08:19:42;11.00;;;7.53;;
8913;SDS011;4492;48.736;9.092;2023-07-24T08:22:08;11.17;;;7.40;;
8913;SDS011;4492;48.736;9.092;2023-07-24T08:24:34;13.90;;;7.97;;
8913;SDS011;4492;48.736;9.092;2023-07-24T08:27:00;12.40;;;7.40;;
8913;SDS011;4492;48.736;9.092;2023-07-24T08:29:26;12.53;;;7.37;;
8913;SDS011;4492;48.736;9.092;2023-07-24T08:31:51;13.90;;;7.63;;
8913;SDS011;4492;48.736;9.092;2023-07-24T08:34:17;10.03;;;7.37;;
8913;SDS011;4492;48.736;9.092;2023-07-24T08:36:42;11.07;;;7.03;;
8913;SDS011;4492;48.736;9.092;2023-07-24T08:39:08;14.70;;;7.23;;
8913;SDS011;4492;48.736;9.092;2023-07-24T08:41:33;13.50;;;7.17;;
8913;SDS011;4492;48.736;9.092;2023-07-24T08:44:00;10.27;;;7.37;;
8913;SDS011;4492;48.736;9.092;2023-07-24T08:46:27;8.83;;;6.60;;
8913;SDS011;4492;48.736;9.092;2023-07-24T08:48:52;12.70;;;7.57;;
8913;SDS011;4492;48.736;9.092;2023-07-24T08:51:19;11.60;;;7.30;;
8913;SDS011;4492;48.736;9.092;2023-07-24T08:53:47;10.33;;;6.40;;
8913;SDS011;4492;48.736;9.092;2023-07-24T08:56:13;10.20;;;7.20;;
8913;SDS011;4492;48.736;9.092;2023-07-24T08:58:39;8.77;;;6.30;;
8913;SDS011;4492;48.736;9.092;2023-07-24T09:01:05;9.97;;;6.00;;
8913;SDS011;4492;48.736;9.092;2023-07-24T09:03:34;8.57;;;6.37;;
8913;SDS011;4492;48.736;9.092;2023-07-24T09:06:00;8.33;;;5.80;;
8913;SDS011;4492;48.736;9.092;2023-07-24T09:08:29;9.30;;;6.47;;
8913;SDS011;4492;48.736;9.092;2023-07-24T09:10:59;10.83;;;6.70;;
8913;SDS011;4492;48.736;9.092;2023-07-24T09:13:25;9.07;;;6.60;;
8913;SDS011;4492;48.736;9.092;2023-07-24T09:15:51;8.10;;;6.37;;
8913;SDS011;4492;48.736;9.092;2023-07-24T09:18:17;9.50;;;6.37;;
8913;SDS011;4492;48.736;9.092;2023-07-24T09:20:43;9.23;;;6.40;;
8913;SDS011;4492;48.736;9.092;2023-07-24T09:23:09;7.37;;;5.40;;
8913;SDS011;4492;48.736;9.092;2023-07-24T09:25:37;8.93;;;5.23;;
8913;SDS011;4492;48.736;9.092;2023-07-24T09:28:16;6.53;;;5.23;;
8913;SDS011;4492;48.736;9.092;2023-07-24T09:30:42;8.17;;;5.17;;
8913;SDS011;4492;48.736;9.092;2023-07-24T09:33:17;7.20;;;4.87;;
8913;SDS011;4492;48.736;9.092;2023-07-24T09:35:43;8.87;;;5.33;;
8913;SDS011;4492;48.736;9.092;2023-07-24T09:38:10;6.33;;;5.10;;
8913;SDS011;4492;48.736;9.092;2023-07-24T09:40:45;8.13;;;5.33;;
8913;SDS011;4492;48.736;9.092;2023-07-24T09:43:15;7.07;;;5.43;;
8913;SDS011;4492;48.736;9.092;2023-07-24T09:45:43;5.93;;;5.23;;
8913;SDS011;4492;48.736;9.092;2023-07-24T09:48:09;7.53;;;5.50;;
8913;SDS011;4492;48.736;9.092;2023-07-24T09:50:39;8.63;;;5.50;;
8913;SDS011;4492;48.736;9.092;2023-07-24T09:53:06;6.50;;;5.07;;
8913;SDS011;4492;48.736;9.092;2023-07-24T09:55:43;7.93;;;5.50;;
8913;SDS011;4492;48.736;9.092;2023-07-24T09:58:33;6.07;;;5.47;;
8913;SDS011;4492;48.736;9.092;2023-07-24T10:01:04;7.03;;;4.97;;
8913;SDS011;4492;48.736;9.092;2023-07-24T10:03:31;7.17;;;5.60;;
8913;SDS011;4492;48.736;9.092;2023-07-24T10:05:58;7.40;;;5.40;;
8913;SDS011;4492;48.736;9.092;2023-07-24T10:08:25;6.63;;;5.37;;
8913;SDS011;4492;48.736;9.092;2023-07-24T10:10:51;6.07;;;5.00;;
8913;SDS011;4492;48.736;9.092;2023-07-24T10:13:18;6.67;;;5.57;;
8913;SDS011;4492;48.736;9.092;2023-07-24T10:15:45;8.70;;;5.63;;
8913;SDS011;4492;48.736;9.092;2023-07-24T10:18:12;6.73;;;5.57;;
8913;SDS011;4492;48.736;9.092;2023-07-24T10:20:41;11.00;;;6.00;;
8913;SDS011;4492;48.736;9.092;2023-07-24T10:23:09;7.87;;;6.37;;
8913;SDS011;4492;48.736;9.092;2023-07-24T10:25:36;9.03;;;5.87;;
8913;SDS011;4492;48.736;9.092;2023-07-24T10:28:09;9.50;;;6.23;;
8913;SDS011;4492;48.736;9.092;2023-07-24T10:30:37;11.77;;;6.33;;
8913;SDS011;4492;48.736;9.092;2023-07-24T10:33:04;7.73;;;5.80;;
8913;SDS011;4492;48.736;9.092;2023-07-24T10:35:38;11.07;;;6.23;;
8913;SDS011;4492;48.736;9.092;2023-07-24T10:38:10;8.33;;;5.83;;
8913;SDS011;4492;48.736;9.092;2023-07-24T10:40:39;11.63;;;7.10;;
8913;SDS011;4492;48.736;9.092;2023-07-24T10:43:18;13.70;;;6.60;;
8913;SDS011;4492;48.736;9.092;2023-07-24T10:45:49;14.13;;;6.87;;
8913;SDS011;4492;48.736;9.092;2023-07-24T10:48:16;11.23;;;6.10;;
8913;SDS011;4492;48.736;9.092;2023-07-24T10:50:43;8.73;;;6.10;;
8913;SDS011;4492;48.736;9.092;2023-07-24T10:53:10;11.77;;;7.30;;
8913;SDS011;4492;48.736;9.092;2023-07-24T10:55:38;8.67;;;6.53;;
8913;SDS011;4492;48.736;9.092;2023-07-24T10:58:03;11.43;;;7.13;;
8913;SDS011;4492;48.736;9.092;2023-07-24T11:00:29;12.00;;;6.77;;
8913;SDS011;4492;48.736;9.092;2023-07-24T11:02:55;12.40;;;7.63;;
8913;SDS011;4492;48.736;9.092;2023-07-24T11:05:21;14.50;;;7.30;;
8913;SDS011;4492;48.736;9.092;2023-07-24T11:07:47;9.97;;;7.13;;
8913;SDS011;4492;48.736;9.092;2023-07-24T11:10:14;10.20;;;6.80;;
8913;SDS011;4492;48.736;9.092;2023-07-24T11:12:43;11.77;;;7.30;;
8913;SDS011;4492;48.736;9.092;2023-07-24T11:15:09;9.00;;;6.53;;
8913;SDS011;4492;48.736;9.092;2023-07-24T11:17:36;8.13;;;6.53;;
8913;SDS011;4492;48.736;9.092;2023-07-24T11:20:08;9.63;;;6.57;;
8913;SDS011;4492;48.736;9.092;2023-07-24T11:22:37;11.67;;;6.37;;
8913;SDS011;4492;48.736;9.092;2023-07-24T11:25:08;8.80;;;6.87;;
8913;SDS011;4492;48.736;9.092;2023-07-24T11:27:38;9.67;;;6.30;;
8913;SDS011;4492;48.736;9.092;2023-07-24T11:30:06;9.03;;;6.70;;
8913;SDS011;4492;48.736;9.092;2023-07-24T11:32:32;9.87;;;7.10;;
8913;SDS011;4492;48.736;9.092;2023-07-24T11:34:58;9.67;;;6.83;;
8913;SDS011;4492;48.736;9.092;2023-07-24T11:37:25;9.33;;;6.30;;
8913;SDS011;4492;48.736;9.092;2023-07-24T11:40:00;7.07;;;5.97;;
8913;SDS011;4492;48.736;9.092;2023-07-24T11:42:42;9.33;;;6.60;;
8913;SDS011;4492;48.736;9.092;2023-07-24T11:45:08;8.10;;;6.30;;
8913;SDS011;4492;48.736;9.092;2023-07-24T11:48:08;8.30;;;5.93;;
8913;SDS011;4492;48.736;9.092;2023-07-24T11:50:27;7.43;;;5.83;;
8913;SDS011;4492;48.736;9.092;2023-07-24T11:52:52;8.20;;;6.20;;
8913;SDS011;4492;48.736;9.092;2023-07-24T11:55:19;8.70;;;6.13;;
8913;SDS011;4492;48.736;9.092;2023-07-24T11:57:56;8.33;;;6.50;;
8913;SDS011;4492;48.736;9.092;2023-07-24T12:00:22;11.37;;;6.47;;
8913;SDS011;4492;48.736;9.092;2023-07-24T12:02:49;9.03;;;6.07;;
8913;SDS011;4492;48.736;9.092;2023-07-24T12:05:15;8.17;;;6.03;;
8913;SDS011;4492;48.736;9.092;2023-07-24T12:07:42;8.43;;;5.80;;
8913;SDS011;4492;48.736;9.092;2023-07-24T12:10:09;8.43;;;5.97;;
8913;SDS011;4492;48.736;9.092;2023-07-24T12:12:38;7.43;;;5.80;;
8913;SDS011;4492;48.736;9.092;2023-07-24T12:15:03;8.50;;;5.93;;
8913;SDS011;4492;48.736;9.092;2023-07-24T12:17:29;7.43;;;5.70;;
8913;SDS011;4492;48.736;9.092;2023-07-24T12:19:55;6.53;;;5.90;;
8913;SDS011;4492;48.736;9.092;2023-07-24T12:22:20;7.00;;;5.60;;
8913;SDS011;4492;48.736;9.092;2023-07-24T12:24:47;6.73;;;5.60;;
8913;SDS011;4492;48.736;9.092;2023-07-24T12:27:12;7.33;;;5.60;;
8913;SDS011;4492;48.736;9.092;2023-07-24T12:29:38;7.73;;;6.10;;
8913;SDS011;4492;48.736;9.092;2023-07-24T12:32:03;6.07;;;5.47;;
8913;SDS011;4492;48.736;9.092;2023-07-24T12:34:29;7.93;;;5.90;;
8913;SDS011;4492;48.736;9.092;2023-07-24T12:36:55;7.93;;;6.10;;
8913;SDS011;4492;48.736;9.092;2023-07-24T12:39:20;6.97;;;6.13;;
8913;SDS011;4492;48.736;9.092;2023-07-24T12:41:46;8.60;;;5.93;;
8913;SDS011;4492;48.736;9.092;2023-07-24T12:44:11;8.03;;;6.10;;
8913;SDS011;4492;48.736;9.092;2023-07-24T12:46:37;7.33;;;5.90;;
8913;SDS011;4492;48.736;9.092;2023-07-24T12:49:02;7.33;;;5.63;;
8913;SDS011;4492;48.736;9.092;2023-07-24T12:51:28;5.60;;;5.07;;
8913;SDS011;4492;48.736;9.092;2023-07-24T12:53:53;7.60;;;5.93;;
8913;SDS011;4492;48.736;9.092;2023-07-24T12:56:19;6.63;;;5.97;;
8913;SDS011;4492;48.736;9.092;2023-07-24T12:58:44;7.80;;;5.93;;
8913;SDS011;4492;48.736;9.092;2023-07-24T13:01:10;5.80;;;4.70;;
8913;SDS011;4492;48.736;9.092;2023-07-24T13:03:35;6.93;;;5.37;;
8913;SDS011;4492;48.736;9.092;2023-07-24T13:06:01;7.30;;;5.20;;
8913;SDS011;4492;48.736;9.092;2023-07-24T13:08:26;6.47;;;5.17;;
8913;SDS011;4492;48.736;9.092;2023-07-24T13:10:52;5.83;;;5.23;;
8913;SDS011;4492;48.736;9.092;2023-07-24T13:13:17;5.97;;;5.13;;
8913;SDS011;4492;48.736;9.092;2023-07-24T13:15:43;6.70;;;5.37;;
8913;SDS011;4492;48.736;9.092;2023-07-24T13:18:08;6.17;;;5.10;;
8913;SDS011;4492;48.736;9.092;2023-07-24T13:20:34;6.10;;;5.50;;
8913;SDS011;4492;48.736;9.092;2023-07-24T13:22:59;7.47;;;5.27;;
8913;SDS011;4492;48.736;9.092;2023-07-24T13:25:25;7.40;;;4.80;;
8913;SDS011;4492;48.736;9.092;2023-07-24T13:27:50;5.63;;;5.10;;
8913;SDS011;4492;48.736;9.092;2023-07-24T13:30:17;5.77;;;5.20;;
8913;SDS011;4492;48.736;9.092;2023-07-24T13:32:43;5.90;;;5.30;;
8913;SDS011;4492;48.736;9.092;2023-07-24T13:35:08;6.90;;;4.70;;
8913;SDS011;4492;48.736;9.092;2023-07-24T13:37:34;7.27;;;5.20;;
8913;SDS011;4492;48.736;9.092;2023-07-24T13:40:00;5.43;;;4.80;;
8913;SDS011;4492;48.736;9.092;2023-07-24T13:42:25;5.90;;;5.30;;
8913;SDS011;4492;48.736;9.092;2023-07-24T13:44:50;5.97;;;4.80;;
8913;SDS011;4492;48.736;9.092;2023-07-24T13:47:16;5.33;;;4.83;;
8913;SDS011;4492;48.736;9.092;2023-07-24T13:49:42;5.30;;;4.53;;
8913;SDS011;4492;48.736;9.092;2023-07-24T13:52:07;5.27;;;4.67;;
8913;SDS011;4492;48.736;9.092;2023-07-24T13:54:33;5.07;;;4.57;;
8913;SDS011;4492;48.736;9.092;2023-07-24T13:56:58;5.37;;;4.83;;
8913;SDS011;4492;48.736;9.092;2023-07-24T13:59:24;4.77;;;4.37;;
8913;SDS011;4492;48.736;9.092;2023-07-24T14:01:49;5.40;;;4.90;;
8913;SDS011;4492;48.736;9.092;2023-07-24T14:04:15;5.13;;;4.73;;
8913;SDS011;4492;48.736;9.092;2023-07-24T14:06:40;4.73;;;4.33;;
8913;SDS011;4492;48.736;9.092;2023-07-24T14:09:06;4.60;;;4.03;;
8913;SDS011;4492;48.736;9.092;2023-07-24T14:11:32;4.40;;;4.00;;
8913;SDS011;4492;48.736;9.092;2023-07-24T14:13:57;5.33;;;4.20;;
8913;SDS011;4492;48.736;9.092;2023-07-24T14:16:23;4.50;;;4.10;;
8913;SDS011;4492;48.736;9.092;2023-07-24T14:18:48;4.70;;;4.30;;
8913;SDS011;4492;48.736;9.092;2023-07-24T14:21:13;4.63;;;4.23;;
8913;SDS011;4492;48.736;9.092;2023-07-24T14:23:39;4.30;;;3.90;;
8913;SDS011;4492;48.736;9.092;2023-07-24T14:26:04;4.77;;;4.20;;
8913;SDS011;4492;48.736;9.092;2023-07-24T14:28:30;4.43;;;4.03;;
8913;SDS011;4492;48.736;9.092;2023-07-24T14:30:56;4.40;;;4.00;;
8913;SDS011;4492;48.736;9.092;2023-07-24T14:33:21;4.77;;;4.27;;
8913;SDS011;4492;48.736;9.092;2023-07-24T14:35:47;7.43;;;4.37;;
8913;SDS011;4492;48.736;9.092;2023-07-24T14:38:12;4.40;;;4.00;;
8913;SDS011;4492;48.736;9.092;2023-07-24T14:40:38;5.30;;;4.80;;
8913;SDS011;4492;48.736;9.092;2023-07-24T14:43:04;4.77;;;4.27;;
8913;SDS011;4492;48.736;9.092;2023-07-24T14:45:30;4.67;;;4.10;;
8913;SDS011;4492;48.736;9.092;2023-07-24T14:47:55;4.60;;;4.20;;
8913;SDS011;4492;48.736;9.092;2023-07-24T14:50:21;4.73;;;4.33;;
8913;SDS011;4492;48.736;9.092;2023-07-24T14:52:46;5.47;;;4.50;;
8913;SDS011;4492;48.736;9.092;2023-07-24T14:55:12;4.37;;;3.97;;
8913;SDS011;4492;48.736;9.092;2023-07-24T14:57:39;4.50;;;4.10;;
8913;SDS011;4492;48.736;9.092;2023-07-24T15:00:04;4.87;;;4.43;;
8913;SDS011;4492;48.736;9.092;2023-07-24T15:02:30;4.17;;;3.87;;
8913;SDS011;4492;48.736;9.092;2023-07-24T15:04:57;4.83;;;3.90;;
8913;SDS011;4492;48.736;9.092;2023-07-24T15:07:23;4.63;;;4.10;;
8913;SDS011;4492;48.736;9.092;2023-07-24T15:09:49;4.57;;;4.07;;